createdAt,value
2023-02-19T00:00:02.660Z,5.77
2023-02-19T00:01:02.673Z,5.70
2023-02-19T00:02:02.704Z,5.76
2023-02-19T00:03:02.695Z,5.77
2023-02-19T00:04:02.710Z,5.74
2023-02-19T00:05:02.804Z,5.76
2023-02-19T00:06:02.726Z,5.74
2023-02-19T00:07:02.739Z,5.72
2023-02-19T00:08:02.752Z,5.77
2023-02-19T00:09:02.759Z,5.72
2023-02-19T00:10:02.777Z,5.74
2023-02-19T00:11:02.780Z,5.72
2023-02-19T00:12:02.793Z,5.77
2023-02-19T00:13:02.820Z,5.73
2023-02-19T00:14:02.815Z,5.72
2023-02-19T00:15:02.825Z,5.73
2023-02-19T00:16:02.878Z,5.74
2023-02-19T00:17:02.850Z,5.70
2023-02-19T00:18:02.857Z,5.77
2023-02-19T00:19:02.867Z,5.70
2023-02-19T00:20:02.887Z,5.72
2023-02-19T00:21:02.896Z,5.77
2023-02-19T00:22:02.902Z,5.73
2023-02-19T00:23:02.910Z,5.73
2023-02-19T00:24:02.939Z,5.77
2023-02-19T00:25:02.940Z,5.74
2023-02-19T00:26:17.153Z,5.79
2023-02-19T00:27:02.957Z,5.74
2023-02-19T00:28:02.973Z,5.79
2023-02-19T00:29:03.016Z,5.77
2023-02-19T00:30:03.023Z,5.74
2023-02-19T00:31:03.020Z,5.76
2023-02-19T00:32:03.056Z,5.74
2023-02-19T00:33:03.037Z,5.77
2023-02-19T00:34:03.068Z,5.76
2023-02-19T00:35:03.045Z,5.73
2023-02-19T00:36:03.059Z,5.72
2023-02-19T00:37:03.072Z,5.76
2023-02-19T00:38:03.080Z,5.72
2023-02-19T00:39:03.101Z,5.76
2023-02-19T00:40:03.105Z,5.72
2023-02-19T00:41:03.114Z,5.72
2023-02-19T00:42:03.123Z,5.73
2023-02-19T00:43:03.137Z,5.69
2023-02-19T00:44:03.152Z,5.77
2023-02-19T00:45:03.176Z,5.73
2023-02-19T00:46:03.180Z,5.64
2023-02-19T00:47:03.180Z,5.74
2023-02-19T00:48:03.196Z,5.64
2023-02-19T00:49:03.202Z,5.77
2023-02-19T00:50:03.213Z,5.62
2023-02-19T00:51:03.225Z,5.62
2023-02-19T00:52:03.233Z,5.74
2023-02-19T00:53:03.246Z,5.74
2023-02-19T00:54:03.260Z,5.62
2023-02-19T00:55:03.275Z,5.67
2023-02-19T00:56:03.279Z,5.77
2023-02-19T00:57:03.292Z,5.73
2023-02-19T00:58:03.302Z,5.67
2023-02-19T00:59:03.313Z,5.72
2023-02-19T01:00:03.324Z,5.64
2023-02-19T01:01:03.339Z,5.62
2023-02-19T01:02:03.345Z,5.69
2023-02-19T01:03:03.358Z,5.74
2023-02-19T01:04:06.182Z,5.62
2023-02-19T01:05:03.378Z,5.73
2023-02-19T01:06:03.393Z,5.73
2023-02-19T01:07:03.403Z,5.61
2023-02-19T01:08:03.410Z,5.70
2023-02-19T01:09:03.422Z,5.59
2023-02-19T01:10:03.430Z,5.64
2023-02-19T01:11:03.458Z,5.61
2023-02-19T01:12:03.457Z,5.64
2023-02-19T01:13:03.466Z,5.62
2023-02-19T01:14:03.528Z,5.58
2023-02-19T01:15:03.488Z,5.59
2023-02-19T01:16:03.536Z,5.58
2023-02-19T01:17:03.505Z,5.67
2023-02-19T01:18:03.515Z,5.65
2023-02-19T01:19:03.531Z,5.67
2023-02-19T01:20:03.538Z,5.61
2023-02-19T01:21:03.549Z,5.67
2023-02-19T01:22:03.560Z,5.67
2023-02-19T01:23:03.568Z,5.67
2023-02-19T01:24:03.582Z,5.64
2023-02-19T01:25:03.593Z,5.64
2023-02-19T01:26:03.604Z,5.64
2023-02-19T01:27:03.613Z,5.59
2023-02-19T01:28:03.625Z,5.58
2023-02-19T01:29:03.643Z,5.58
2023-02-19T01:30:03.703Z,5.58
2023-02-19T01:31:03.712Z,5.58
2023-02-19T01:32:03.878Z,5.54
2023-02-19T01:33:03.678Z,5.59
2023-02-19T01:34:03.703Z,5.55
2023-02-19T01:35:03.706Z,5.59
2023-02-19T01:36:03.710Z,5.49
2023-02-19T01:37:03.723Z,5.64
2023-02-19T01:38:03.738Z,5.47
2023-02-19T01:39:03.759Z,5.47
2023-02-19T01:40:03.767Z,5.59
2023-02-19T01:41:03.768Z,5.52
2023-02-19T01:42:03.778Z,5.59
2023-02-19T01:43:03.786Z,5.58
2023-02-19T01:44:03.812Z,5.55
2023-02-19T01:45:03.813Z,5.59
2023-02-19T01:46:03.824Z,5.55
2023-02-19T01:47:03.835Z,5.58
2023-02-19T01:48:03.846Z,5.61
2023-02-19T01:49:03.856Z,5.59
2023-02-19T01:50:03.865Z,5.56
2023-02-19T01:51:03.885Z,5.61
2023-02-19T01:52:03.887Z,5.54
2023-02-19T01:53:03.900Z,5.41
2023-02-19T01:54:03.908Z,5.54
2023-02-19T01:55:03.925Z,5.52
2023-02-19T01:56:03.948Z,5.46
2023-02-19T01:57:03.942Z,5.51
2023-02-19T01:58:03.953Z,5.43
2023-02-19T01:59:03.972Z,5.49
2023-02-19T02:00:03.975Z,5.51
2023-02-19T02:01:04.040Z,5.40
2023-02-19T02:02:04.011Z,5.37
2023-02-19T02:03:04.007Z,5.36
2023-02-19T02:04:04.017Z,5.34
2023-02-19T02:05:04.028Z,5.36
2023-02-19T02:06:04.041Z,5.41
2023-02-19T02:07:04.050Z,5.36
2023-02-19T02:08:04.062Z,5.36
2023-02-19T02:09:04.072Z,5.36
2023-02-19T02:10:04.081Z,5.36
2023-02-19T02:11:04.091Z,5.31
2023-02-19T02:12:04.107Z,5.34
2023-02-19T02:13:04.115Z,5.34
2023-02-19T02:14:04.128Z,5.31
2023-02-19T02:15:04.137Z,5.26
2023-02-19T02:16:04.231Z,5.26
2023-02-19T02:17:04.161Z,5.25
2023-02-19T02:18:04.170Z,5.19
2023-02-19T02:19:04.185Z,5.16
2023-02-19T02:20:04.199Z,5.18
2023-02-19T02:21:04.203Z,5.16
2023-02-19T02:22:04.230Z,5.16
2023-02-19T02:23:04.226Z,5.13
2023-02-19T02:24:04.239Z,5.10
2023-02-19T02:25:04.270Z,5.10
2023-02-19T02:26:04.262Z,5.10
2023-02-19T02:27:04.284Z,5.15
2023-02-19T02:28:04.288Z,5.08
2023-02-19T02:29:04.286Z,4.95
2023-02-19T02:30:04.360Z,5.04
2023-02-19T02:31:04.468Z,5.01
2023-02-19T02:32:04.409Z,5.00
2023-02-19T02:33:04.336Z,4.98
2023-02-19T02:34:04.346Z,5.01
2023-02-19T02:35:04.352Z,4.94
2023-02-19T02:36:04.362Z,5.01
2023-02-19T02:37:04.380Z,5.00
2023-02-19T02:38:04.383Z,4.97
2023-02-19T02:39:04.392Z,4.95
2023-02-19T02:40:04.405Z,4.98
2023-02-19T02:41:04.418Z,4.94
2023-02-19T02:42:04.425Z,4.97
2023-02-19T02:43:04.443Z,4.94
2023-02-19T02:44:04.445Z,4.90
2023-02-19T02:45:04.459Z,4.92
2023-02-19T02:46:04.535Z,4.89
2023-02-19T02:47:04.479Z,4.94
2023-02-19T02:48:04.489Z,4.98
2023-02-19T02:49:04.496Z,4.94
2023-02-19T02:50:04.508Z,4.94
2023-02-19T02:51:04.522Z,4.90
2023-02-19T02:52:04.530Z,4.95
2023-02-19T02:53:04.538Z,4.94
2023-02-19T02:54:04.547Z,4.90
2023-02-19T02:55:04.565Z,4.89
2023-02-19T02:56:04.568Z,4.89
2023-02-19T02:57:04.594Z,4.87
2023-02-19T02:58:04.599Z,4.90
2023-02-19T02:59:04.611Z,4.89
2023-02-19T03:00:04.611Z,4.84
2023-02-19T03:01:04.654Z,4.82
2023-02-19T03:02:04.674Z,4.87
2023-02-19T03:03:04.647Z,4.87
2023-02-19T03:04:04.654Z,4.74
2023-02-19T03:05:04.665Z,4.75
2023-02-19T03:06:04.686Z,4.83
2023-02-19T03:07:04.686Z,4.84
2023-02-19T03:08:04.700Z,4.71
2023-02-19T03:09:04.704Z,4.71
2023-02-19T03:10:04.713Z,4.75
2023-02-19T03:11:04.722Z,4.82
2023-02-19T03:12:04.733Z,4.74
2023-02-19T03:13:04.751Z,4.70
2023-02-19T03:14:04.755Z,4.70
2023-02-19T03:15:04.768Z,4.67
2023-02-19T03:16:04.781Z,4.60
2023-02-19T03:17:04.785Z,4.57
2023-02-19T03:18:04.798Z,4.60
2023-02-19T03:19:04.803Z,4.61
2023-02-19T03:20:04.858Z,4.66
2023-02-19T03:21:04.825Z,4.58
2023-02-19T03:22:04.833Z,4.56
2023-02-19T03:23:04.843Z,4.60
2023-02-19T03:24:04.863Z,4.52
2023-02-19T03:25:04.862Z,4.57
2023-02-19T03:26:04.871Z,4.56
2023-02-19T03:27:04.881Z,4.46
2023-02-19T03:28:04.893Z,4.49
2023-02-19T03:29:04.901Z,4.45
2023-02-19T03:30:04.991Z,4.42
2023-02-19T03:31:04.932Z,4.46
2023-02-19T03:32:05.109Z,4.43
2023-02-19T03:33:04.940Z,4.43
2023-02-19T03:34:04.948Z,4.42
2023-02-19T03:35:04.960Z,4.31
2023-02-19T03:36:04.971Z,4.31
2023-02-19T03:37:04.986Z,4.39
2023-02-19T03:38:04.989Z,4.32
2023-02-19T03:39:04.999Z,4.25
2023-02-19T03:40:05.009Z,4.22
2023-02-19T03:41:05.027Z,4.03
2023-02-19T03:42:05.033Z,4.03
2023-02-19T03:43:05.036Z,4.02
2023-02-19T03:44:05.048Z,3.99
2023-02-19T03:45:05.058Z,3.99
2023-02-19T03:46:05.130Z,3.91
2023-02-19T03:47:05.074Z,3.84
2023-02-19T03:48:05.087Z,3.77
2023-02-19T03:49:05.106Z,3.81
2023-02-19T03:50:05.101Z,3.85
2023-02-19T03:51:05.134Z,3.68
2023-02-19T03:52:05.126Z,3.70
2023-02-19T03:53:05.130Z,3.73
2023-02-19T03:54:05.141Z,3.78
2023-02-19T03:55:05.149Z,3.73
2023-02-19T03:56:05.162Z,3.66
2023-02-19T03:57:05.181Z,3.61
2023-02-19T03:58:05.182Z,3.67
2023-02-19T03:59:05.185Z,3.67
2023-02-19T04:00:05.197Z,3.53
2023-02-19T04:01:05.207Z,3.59
2023-02-19T04:02:05.293Z,3.49
2023-02-19T04:03:05.225Z,3.46
2023-02-19T04:04:05.237Z,3.40
2023-02-19T04:05:05.244Z,3.43
2023-02-19T04:06:05.251Z,3.36
2023-02-19T04:07:05.262Z,3.36
2023-02-19T04:08:05.269Z,3.24
2023-02-19T04:09:05.283Z,3.24
2023-02-19T04:10:05.302Z,3.24
2023-02-19T04:11:05.302Z,3.27
2023-02-19T04:12:05.307Z,3.19
2023-02-19T04:13:05.315Z,3.18
2023-02-19T04:14:05.323Z,3.26
2023-02-19T04:15:05.333Z,3.18
2023-02-19T04:16:05.345Z,3.13
2023-02-19T04:17:05.362Z,3.11
2023-02-19T04:18:05.378Z,3.15
2023-02-19T04:19:05.375Z,3.13
2023-02-19T04:20:05.384Z,3.08
2023-02-19T04:21:05.385Z,3.13
2023-02-19T04:22:05.403Z,3.08
2023-02-19T04:23:05.402Z,3.05
2023-02-19T04:24:05.415Z,3.05
2023-02-19T04:25:05.423Z,3.09
2023-02-19T04:26:05.430Z,3.06
2023-02-19T04:27:05.436Z,2.97
2023-02-19T04:28:05.447Z,2.88
2023-02-19T04:29:05.450Z,2.93
2023-02-19T04:30:05.568Z,3.00
2023-02-19T04:31:05.480Z,2.91
2023-02-19T04:32:05.509Z,3.00
2023-02-19T04:33:05.484Z,3.00
2023-02-19T04:34:05.498Z,3.00
2023-02-19T04:35:05.501Z,2.90
2023-02-19T04:36:05.510Z,2.91
2023-02-19T04:37:05.516Z,2.95
2023-02-19T04:38:05.528Z,2.91
2023-02-19T04:39:05.534Z,2.91
2023-02-19T04:40:05.563Z,2.98
2023-02-19T04:41:05.554Z,2.95
2023-02-19T04:42:05.589Z,2.98
2023-02-19T04:43:05.566Z,2.91
2023-02-19T04:44:05.573Z,2.94
2023-02-19T04:45:05.583Z,2.97
2023-02-19T04:46:05.625Z,2.95
2023-02-19T04:47:05.598Z,2.91
2023-02-19T04:48:05.613Z,2.91
2023-02-19T04:49:05.616Z,2.93
2023-02-19T04:50:05.627Z,2.95
2023-02-19T04:51:05.632Z,2.97
2023-02-19T04:52:05.641Z,2.93
2023-02-19T04:53:05.649Z,2.95
2023-02-19T04:54:05.657Z,2.93
2023-02-19T04:55:05.667Z,2.90
2023-02-19T04:56:05.675Z,2.88
2023-02-19T04:57:05.683Z,2.88
2023-02-19T04:58:05.701Z,2.83
2023-02-19T04:59:05.698Z,2.83
2023-02-19T05:00:05.723Z,2.88
2023-02-19T05:01:05.715Z,2.90
2023-02-19T05:02:05.726Z,2.82
2023-02-19T05:03:05.737Z,2.87
2023-02-19T05:04:05.766Z,2.83
2023-02-19T05:05:05.750Z,2.90
2023-02-19T05:06:05.759Z,2.85
2023-02-19T05:07:05.767Z,2.79
2023-02-19T05:08:05.781Z,2.80
2023-02-19T05:09:05.784Z,2.93
2023-02-19T05:10:05.797Z,2.88
2023-02-19T05:11:05.806Z,2.91
2023-02-19T05:12:05.809Z,2.82
2023-02-19T05:13:05.827Z,2.83
2023-02-19T05:14:05.829Z,2.77
2023-02-19T05:15:05.838Z,2.87
2023-02-19T05:16:05.875Z,2.87
2023-02-19T05:17:05.852Z,2.82
2023-02-19T05:18:05.858Z,2.83
2023-02-19T05:19:05.869Z,2.83
2023-02-19T05:20:05.880Z,2.87
2023-02-19T05:21:05.886Z,2.80
2023-02-19T05:22:05.944Z,2.75
2023-02-19T05:23:05.903Z,2.87
2023-02-19T05:24:05.911Z,2.87
2023-02-19T05:25:05.930Z,2.77
2023-02-19T05:26:05.957Z,2.75
2023-02-19T05:27:05.938Z,2.75
2023-02-19T05:28:05.944Z,2.72
2023-02-19T05:29:05.954Z,2.75
2023-02-19T05:30:06.000Z,2.75
2023-02-19T05:31:05.990Z,2.73
2023-02-19T05:32:05.987Z,2.77
2023-02-19T05:33:05.987Z,2.72
2023-02-19T05:34:05.992Z,2.72
2023-02-19T05:35:06.002Z,2.72
2023-02-19T05:36:06.010Z,2.76
2023-02-19T05:37:06.019Z,2.69
2023-02-19T05:38:06.026Z,2.76
2023-02-19T05:39:06.039Z,2.75
2023-02-19T05:40:06.046Z,2.72
2023-02-19T05:41:06.060Z,2.70
2023-02-19T05:42:06.061Z,2.72
2023-02-19T05:43:06.097Z,2.70
2023-02-19T05:44:06.080Z,2.69
2023-02-19T05:45:06.096Z,2.75
2023-02-19T05:46:06.131Z,2.72
2023-02-19T05:47:06.105Z,2.72
2023-02-19T05:48:06.123Z,2.76
2023-02-19T05:49:06.137Z,2.70
2023-02-19T05:50:06.144Z,2.73
2023-02-19T05:51:06.151Z,2.77
2023-02-19T05:52:06.145Z,2.76
2023-02-19T05:53:06.154Z,2.64
2023-02-19T05:54:06.165Z,2.73
2023-02-19T05:55:06.192Z,2.64
2023-02-19T05:56:06.194Z,2.68
2023-02-19T05:57:06.226Z,2.59
2023-02-19T05:58:06.206Z,2.68
2023-02-19T05:59:06.203Z,2.61
2023-02-19T06:00:06.214Z,2.59
2023-02-19T06:01:06.226Z,2.64
2023-02-19T06:02:06.237Z,2.62
2023-02-19T06:03:06.245Z,2.64
2023-02-19T06:04:06.285Z,2.64
2023-02-19T06:05:06.259Z,2.62
2023-02-19T06:06:06.265Z,2.62
2023-02-19T06:07:06.273Z,2.68
2023-02-19T06:08:06.283Z,2.62
2023-02-19T06:09:06.291Z,2.64
2023-02-19T06:10:06.300Z,2.62
2023-02-19T06:11:06.311Z,2.64
2023-02-19T06:12:06.316Z,2.57
2023-02-19T06:13:06.336Z,2.57
2023-02-19T06:14:06.336Z,2.47
2023-02-19T06:15:06.343Z,2.55
2023-02-19T06:16:06.383Z,2.50
2023-02-19T06:17:06.356Z,2.50
2023-02-19T06:18:06.366Z,2.57
2023-02-19T06:19:06.385Z,2.52
2023-02-19T06:20:06.386Z,2.64
2023-02-19T06:21:06.396Z,2.61
2023-02-19T06:22:06.401Z,2.57
2023-02-19T06:23:06.415Z,2.62
2023-02-19T06:24:06.433Z,2.68
2023-02-19T06:25:06.454Z,2.69
2023-02-19T06:26:06.437Z,2.68
2023-02-19T06:27:06.443Z,2.62
2023-02-19T06:28:06.473Z,2.64
2023-02-19T06:29:06.471Z,2.68
2023-02-19T06:30:06.553Z,2.59
2023-02-19T06:31:06.508Z,2.65
2023-02-19T06:32:06.532Z,2.73
2023-02-19T06:33:06.503Z,2.70
2023-02-19T06:34:06.517Z,2.72
2023-02-19T06:35:06.520Z,2.77
2023-02-19T06:36:06.526Z,2.72
2023-02-19T06:37:06.539Z,2.70
2023-02-19T06:38:06.543Z,2.72
2023-02-19T06:39:06.558Z,2.75
2023-02-19T06:40:06.572Z,2.76
2023-02-19T06:41:06.573Z,2.73
2023-02-19T06:42:06.584Z,2.76
2023-02-19T06:43:06.589Z,2.68
2023-02-19T06:44:06.617Z,2.75
2023-02-19T06:45:06.614Z,2.75
2023-02-19T06:46:06.612Z,2.80
2023-02-19T06:47:06.628Z,2.82
2023-02-19T06:48:06.638Z,2.87
2023-02-19T06:49:06.644Z,2.83
2023-02-19T06:50:06.653Z,2.87
2023-02-19T06:51:06.665Z,2.90
2023-02-19T06:52:06.680Z,2.83
2023-02-19T06:53:06.691Z,2.83
2023-02-19T06:54:06.688Z,2.87
2023-02-19T06:55:06.697Z,2.90
2023-02-19T06:56:06.709Z,2.83
2023-02-19T06:57:06.722Z,2.87
2023-02-19T06:58:06.723Z,2.83
2023-02-19T06:59:06.731Z,2.82
2023-02-19T07:00:06.746Z,2.85
2023-02-19T07:01:06.782Z,2.83
2023-02-19T07:02:06.764Z,2.85
2023-02-19T07:03:06.765Z,2.85
2023-02-19T07:04:06.794Z,2.88
2023-02-19T07:05:06.783Z,2.91
2023-02-19T07:06:06.796Z,2.87
2023-02-19T07:07:06.801Z,3.01
2023-02-19T07:08:06.810Z,2.85
2023-02-19T07:09:06.821Z,2.90
2023-02-19T07:10:06.828Z,2.88
2023-02-19T07:11:06.843Z,3.00
2023-02-19T07:12:06.846Z,2.95
2023-02-19T07:13:06.853Z,2.90
2023-02-19T07:14:06.861Z,2.93
2023-02-19T07:15:06.872Z,2.90
2023-02-19T07:16:06.901Z,2.98
2023-02-19T07:17:06.891Z,3.05
2023-02-19T07:18:06.897Z,3.03
2023-02-19T07:19:06.907Z,3.03
2023-02-19T07:20:06.916Z,3.03
2023-02-19T07:21:06.934Z,3.00
2023-02-19T07:22:06.935Z,3.03
2023-02-19T07:23:06.944Z,3.03
2023-02-19T07:24:06.957Z,3.05
2023-02-19T07:25:06.965Z,3.05
2023-02-19T07:26:06.974Z,3.05
2023-02-19T07:27:06.980Z,3.06
2023-02-19T07:28:06.991Z,3.15
2023-02-19T07:29:07.001Z,3.13
2023-02-19T07:30:07.064Z,3.16
2023-02-19T07:31:07.049Z,3.12
2023-02-19T07:32:07.059Z,3.12
2023-02-19T07:33:09.374Z,3.08
2023-02-19T07:34:07.054Z,3.16
2023-02-19T07:35:07.057Z,3.18
2023-02-19T07:36:07.066Z,3.24
2023-02-19T07:37:07.076Z,3.24
2023-02-19T07:38:07.102Z,3.18
2023-02-19T07:39:09.211Z,3.19
2023-02-19T07:40:07.110Z,3.19
2023-02-19T07:41:07.134Z,3.18
2023-02-19T07:42:07.128Z,3.24
2023-02-19T07:43:07.137Z,3.29
2023-02-19T07:44:07.160Z,3.22
2023-02-19T07:45:07.157Z,3.24
2023-02-19T07:46:07.181Z,3.21
2023-02-19T07:47:07.184Z,3.16
2023-02-19T07:48:07.189Z,3.24
2023-02-19T07:49:07.233Z,3.24
2023-02-19T07:50:07.205Z,3.29
2023-02-19T07:51:07.215Z,3.24
2023-02-19T07:52:07.225Z,3.24
2023-02-19T07:53:07.237Z,3.18
2023-02-19T07:54:07.245Z,3.22
2023-02-19T07:55:07.256Z,3.13
2023-02-19T07:56:07.266Z,3.22
2023-02-19T07:57:07.275Z,3.24
2023-02-19T07:58:07.285Z,3.16
2023-02-19T07:59:07.294Z,3.15
2023-02-19T08:00:07.323Z,3.19
2023-02-19T08:01:07.430Z,3.12
2023-02-19T08:02:07.323Z,3.11
2023-02-19T08:03:07.364Z,3.09
2023-02-19T08:04:07.350Z,3.08
2023-02-19T08:05:07.358Z,3.16
2023-02-19T08:06:07.377Z,3.09
2023-02-19T08:07:07.371Z,3.13
2023-02-19T08:08:07.384Z,3.12
2023-02-19T08:09:07.393Z,3.11
2023-02-19T08:10:07.408Z,3.16
2023-02-19T08:11:07.409Z,3.11
2023-02-19T08:12:07.422Z,3.11
2023-02-19T08:13:07.432Z,3.09
2023-02-19T08:14:07.441Z,3.12
2023-02-19T08:15:07.447Z,3.11
2023-02-19T08:16:18.423Z,3.11
2023-02-19T08:17:07.497Z,3.15
2023-02-19T08:18:07.476Z,3.15
2023-02-19T08:19:07.482Z,3.12
2023-02-19T08:20:07.492Z,3.11
2023-02-19T08:21:07.530Z,3.12
2023-02-19T08:22:07.515Z,3.08
2023-02-19T08:23:07.523Z,3.09
2023-02-19T08:24:07.540Z,3.15
2023-02-19T08:25:07.542Z,3.12
2023-02-19T08:26:07.553Z,3.13
2023-02-19T08:27:07.568Z,3.18
2023-02-19T08:28:07.570Z,3.21
2023-02-19T08:29:07.577Z,3.12
2023-02-19T08:30:07.613Z,3.19
2023-02-19T08:31:07.730Z,3.24
2023-02-19T08:32:07.655Z,3.21
2023-02-19T08:33:07.633Z,3.24
2023-02-19T08:34:07.624Z,3.26
2023-02-19T08:35:07.635Z,3.26
2023-02-19T08:36:07.647Z,3.21
2023-02-19T08:37:07.652Z,3.21
2023-02-19T08:38:07.666Z,3.26
2023-02-19T08:39:07.675Z,3.33
2023-02-19T08:40:07.684Z,3.30
2023-02-19T08:41:07.698Z,3.31
2023-02-19T08:42:07.701Z,3.33
2023-02-19T08:43:07.720Z,3.30
2023-02-19T08:44:07.722Z,3.31
2023-02-19T08:45:07.736Z,3.31
2023-02-19T08:46:07.779Z,3.30
2023-02-19T08:47:07.745Z,3.34
2023-02-19T08:48:07.754Z,3.45
2023-02-19T08:49:07.765Z,3.43
2023-02-19T08:50:07.777Z,3.45
2023-02-19T08:51:07.788Z,3.48
2023-02-19T08:52:07.793Z,3.46
2023-02-19T08:53:07.802Z,3.46
2023-02-19T08:54:07.810Z,3.59
2023-02-19T08:55:07.835Z,3.61
2023-02-19T08:56:07.829Z,3.67
2023-02-19T08:57:07.839Z,3.64
2023-02-19T08:58:07.849Z,3.74
2023-02-19T08:59:07.870Z,3.74
2023-02-19T09:00:07.869Z,3.70
2023-02-19T09:01:07.904Z,3.67
2023-02-19T09:02:07.889Z,3.68
2023-02-19T09:03:07.899Z,3.82
2023-02-19T09:04:07.918Z,3.70
2023-02-19T09:05:07.930Z,3.73
2023-02-19T09:06:08.052Z,3.73
2023-02-19T09:07:07.935Z,3.77
2023-02-19T09:08:07.949Z,3.81
2023-02-19T09:09:07.956Z,3.84
2023-02-19T09:10:07.973Z,3.89
2023-02-19T09:11:07.984Z,3.89
2023-02-19T09:12:07.991Z,3.86
2023-02-19T09:13:08.003Z,4.02
2023-02-19T09:14:08.014Z,3.99
2023-02-19T09:15:08.034Z,4.07
2023-02-19T09:16:08.094Z,4.00
2023-02-19T09:17:08.036Z,4.10
2023-02-19T09:18:08.046Z,4.09
2023-02-19T09:19:08.060Z,4.12
2023-02-19T09:20:08.077Z,4.07
2023-02-19T09:21:08.077Z,4.04
2023-02-19T09:22:08.091Z,4.13
2023-02-19T09:23:08.106Z,4.14
2023-02-19T09:24:08.118Z,4.20
2023-02-19T09:25:08.123Z,4.24
2023-02-19T09:26:08.166Z,4.27
2023-02-19T09:27:08.145Z,4.22
2023-02-19T09:28:08.154Z,4.27
2023-02-19T09:29:08.165Z,4.27
2023-02-19T09:30:08.226Z,4.22
2023-02-19T09:31:08.358Z,4.27
2023-02-19T09:32:08.212Z,4.31
2023-02-19T09:33:08.205Z,4.36
2023-02-19T09:34:08.225Z,4.34
2023-02-19T09:35:08.232Z,4.38
2023-02-19T09:36:08.236Z,4.32
2023-02-19T09:37:08.250Z,4.32
2023-02-19T09:38:08.265Z,4.25
2023-02-19T09:39:08.269Z,4.31
2023-02-19T09:40:08.282Z,4.42
2023-02-19T09:41:08.403Z,4.43
2023-02-19T09:42:08.302Z,4.46
2023-02-19T09:43:08.311Z,4.48
2023-02-19T09:44:08.326Z,4.56
2023-02-19T09:45:08.337Z,4.48
2023-02-19T09:46:08.353Z,4.50
2023-02-19T09:47:08.359Z,4.56
2023-02-19T09:48:08.364Z,4.63
2023-02-19T09:49:08.411Z,4.64
2023-02-19T09:50:08.394Z,4.56
2023-02-19T09:51:08.433Z,4.63
2023-02-19T09:52:08.409Z,4.57
2023-02-19T09:53:08.423Z,4.71
2023-02-19T09:54:08.433Z,4.74
2023-02-19T09:55:08.443Z,4.68
2023-02-19T09:56:08.451Z,4.74
2023-02-19T09:57:08.465Z,4.75
2023-02-19T09:58:08.474Z,4.83
2023-02-19T09:59:08.484Z,4.84
2023-02-19T10:00:10.623Z,4.86
2023-02-19T10:01:08.612Z,4.86
2023-02-19T10:02:08.517Z,4.87
2023-02-19T10:03:08.528Z,4.86
2023-02-19T10:04:08.549Z,4.86
2023-02-19T10:05:08.568Z,4.90
2023-02-19T10:06:11.298Z,4.94
2023-02-19T10:07:08.571Z,4.92
2023-02-19T10:08:08.583Z,4.89
2023-02-19T10:09:08.595Z,4.95
2023-02-19T10:10:08.603Z,5.00
2023-02-19T10:11:08.707Z,5.00
2023-02-19T10:12:10.133Z,4.94
2023-02-19T10:13:08.639Z,4.95
2023-02-19T10:14:08.648Z,4.97
2023-02-19T10:15:08.660Z,4.97
2023-02-19T10:16:08.709Z,5.01
2023-02-19T10:17:08.684Z,4.97
2023-02-19T10:18:11.132Z,4.98
2023-02-19T10:19:08.704Z,5.07
2023-02-19T10:20:08.715Z,5.04
2023-02-19T10:21:09.039Z,5.07
2023-02-19T10:22:08.739Z,4.97
2023-02-19T10:23:08.754Z,5.04
2023-02-19T10:24:08.762Z,5.01
2023-02-19T10:25:08.774Z,5.10
2023-02-19T10:26:08.787Z,5.07
2023-02-19T10:27:08.796Z,5.04
2023-02-19T10:28:08.806Z,4.94
2023-02-19T10:29:08.819Z,5.01
2023-02-19T10:30:08.884Z,5.01
2023-02-19T10:31:08.994Z,5.04
2023-02-19T10:32:08.867Z,5.02
2023-02-19T10:33:08.885Z,5.04
2023-02-19T10:34:08.875Z,5.04
2023-02-19T10:35:08.885Z,5.05
2023-02-19T10:36:08.896Z,5.05
2023-02-19T10:37:08.908Z,5.10
2023-02-19T10:38:08.918Z,5.16
2023-02-19T10:39:08.943Z,5.13
2023-02-19T10:40:08.943Z,5.15
2023-02-19T10:41:09.100Z,5.13
2023-02-19T10:42:08.963Z,5.23
2023-02-19T10:43:08.974Z,5.23
2023-02-19T10:44:08.985Z,5.16
2023-02-19T10:45:08.997Z,5.12
2023-02-19T10:46:09.033Z,5.16
2023-02-19T10:47:09.019Z,5.18
2023-02-19T10:48:09.035Z,5.15
2023-02-19T10:49:09.048Z,5.16
2023-02-19T10:50:09.053Z,5.15
2023-02-19T10:51:09.215Z,5.18
2023-02-19T10:52:09.078Z,5.16
2023-02-19T10:53:09.085Z,5.16
2023-02-19T10:54:09.099Z,5.13
2023-02-19T10:55:09.110Z,5.16
2023-02-19T10:56:09.122Z,5.18
2023-02-19T10:57:09.131Z,5.26
2023-02-19T10:58:09.142Z,5.25
2023-02-19T10:59:09.152Z,5.22
2023-02-19T11:00:09.174Z,5.28
2023-02-19T11:01:09.417Z,5.33
2023-02-19T11:02:09.189Z,5.25
2023-02-19T11:03:09.199Z,5.28
2023-02-19T11:04:09.250Z,5.26
2023-02-19T11:05:09.216Z,5.34
2023-02-19T11:06:09.235Z,5.47
2023-02-19T11:07:09.244Z,5.47
2023-02-19T11:08:09.255Z,5.44
2023-02-19T11:09:09.265Z,5.43
2023-02-19T11:10:09.275Z,5.44
2023-02-19T11:11:09.623Z,5.55
2023-02-19T11:12:09.655Z,5.55
2023-02-19T11:13:09.309Z,5.59
2023-02-19T11:14:09.320Z,5.55
2023-02-19T11:15:09.336Z,5.55
2023-02-19T11:16:09.368Z,5.59
2023-02-19T11:17:09.364Z,5.73
2023-02-19T11:18:09.373Z,5.67
2023-02-19T11:19:09.377Z,5.70
2023-02-19T11:20:09.389Z,5.67
2023-02-19T11:21:09.630Z,5.73
2023-02-19T11:22:09.414Z,5.80
2023-02-19T11:23:09.423Z,5.81
2023-02-19T11:24:09.435Z,5.80
2023-02-19T11:25:09.445Z,5.79
2023-02-19T11:26:09.458Z,5.80
2023-02-19T11:27:09.468Z,5.83
2023-02-19T11:28:09.484Z,5.83
2023-02-19T11:29:09.493Z,5.90
2023-02-19T11:30:09.584Z,5.81
2023-02-19T11:31:10.319Z,5.87
2023-02-19T11:32:09.847Z,5.74
2023-02-19T11:33:09.548Z,5.80
2023-02-19T11:34:09.551Z,5.72
2023-02-19T11:35:09.569Z,5.65
2023-02-19T11:36:09.576Z,5.61
2023-02-19T11:37:09.590Z,5.64
2023-02-19T11:38:09.603Z,5.51
2023-02-19T11:39:09.614Z,5.61
2023-02-19T11:40:09.626Z,5.61
2023-02-19T11:41:09.875Z,5.52
2023-02-19T11:42:09.656Z,5.55
2023-02-19T11:43:09.660Z,5.41
2023-02-19T11:44:09.678Z,5.40
2023-02-19T11:45:09.687Z,5.46
2023-02-19T11:46:09.692Z,5.51
2023-02-19T11:47:09.706Z,5.46
2023-02-19T11:48:09.726Z,5.47
2023-02-19T11:49:09.730Z,5.41
2023-02-19T11:50:09.741Z,5.47
2023-02-19T11:51:10.000Z,5.46
2023-02-19T11:52:09.764Z,5.47
2023-02-19T11:53:09.775Z,5.44
2023-02-19T11:54:09.786Z,5.43
2023-02-19T11:55:09.796Z,5.52
2023-02-19T11:56:09.806Z,5.41
2023-02-19T11:57:09.818Z,5.44
2023-02-19T11:58:09.828Z,5.49
2023-02-19T11:59:09.839Z,5.52
2023-02-19T12:00:09.855Z,5.59
2023-02-19T12:01:10.157Z,5.49
2023-02-19T12:02:09.893Z,5.59
2023-02-19T12:03:09.893Z,5.56
2023-02-19T12:04:09.900Z,5.62
2023-02-19T12:05:09.976Z,5.74
2023-02-19T12:06:10.300Z,5.73
2023-02-19T12:07:09.935Z,5.80
2023-02-19T12:08:09.947Z,5.90
2023-02-19T12:09:09.964Z,5.87
2023-02-19T12:10:09.971Z,5.79
2023-02-19T12:11:09.979Z,5.79
2023-02-19T12:12:09.989Z,5.74
2023-02-19T12:13:09.998Z,5.83
2023-02-19T12:14:10.011Z,5.74
2023-02-19T12:15:10.025Z,5.73
2023-02-19T12:16:10.041Z,5.74
2023-02-19T12:17:10.045Z,5.74
2023-02-19T12:18:10.065Z,5.58
2023-02-19T12:19:10.075Z,5.61
2023-02-19T12:20:10.079Z,5.55
2023-02-19T12:21:10.298Z,5.52
2023-02-19T12:22:10.104Z,5.59
2023-02-19T12:23:10.117Z,5.64
2023-02-19T12:24:10.126Z,5.59
2023-02-19T12:25:10.138Z,5.64
2023-02-19T12:26:10.386Z,5.64
2023-02-19T12:27:10.163Z,5.64
2023-02-19T12:28:10.172Z,5.49
2023-02-19T12:29:10.188Z,5.64
2023-02-19T12:30:10.235Z,5.67
2023-02-19T12:31:10.243Z,5.58
2023-02-19T12:32:10.263Z,5.65
2023-02-19T12:33:10.231Z,5.64
2023-02-19T12:34:10.238Z,5.70
2023-02-19T12:35:10.252Z,5.74
2023-02-19T12:36:10.470Z,5.76
2023-02-19T12:37:10.278Z,5.81
2023-02-19T12:38:10.286Z,5.80
2023-02-19T12:39:10.302Z,5.87
2023-02-19T12:40:10.311Z,5.74
2023-02-19T12:41:10.320Z,5.79
2023-02-19T12:42:10.331Z,5.87
2023-02-19T12:43:10.359Z,5.91
2023-02-19T12:44:10.356Z,5.90
2023-02-19T12:45:10.368Z,6.06
2023-02-19T12:46:10.761Z,6.05
2023-02-19T12:47:10.388Z,5.99
2023-02-19T12:48:10.400Z,6.07
2023-02-19T12:49:10.416Z,6.16
2023-02-19T12:50:10.423Z,6.16
2023-02-19T12:51:10.436Z,6.31
2023-02-19T12:52:10.453Z,6.19
2023-02-19T12:53:10.461Z,6.31
2023-02-19T12:54:10.482Z,6.28
2023-02-19T12:55:10.485Z,6.36
2023-02-19T12:56:10.744Z,6.36
2023-02-19T12:57:10.518Z,6.35
2023-02-19T12:58:10.522Z,6.47
2023-02-19T12:59:10.540Z,6.44
2023-02-19T13:00:10.565Z,6.46
2023-02-19T13:01:10.592Z,6.57
2023-02-19T13:02:10.659Z,6.60
2023-02-19T13:03:10.584Z,6.75
2023-02-19T13:04:10.600Z,6.65
2023-02-19T13:05:10.622Z,6.70
2023-02-19T13:06:11.488Z,6.71
2023-02-19T13:07:10.634Z,6.77
2023-02-19T13:08:10.652Z,6.85
2023-02-19T13:09:10.670Z,6.85
2023-02-19T13:10:10.688Z,6.92
2023-02-19T13:11:11.008Z,6.85
2023-02-19T13:12:10.698Z,6.77
2023-02-19T13:13:10.713Z,6.75
2023-02-19T13:14:10.723Z,6.74
2023-02-19T13:15:10.738Z,6.67
2023-02-19T13:16:10.969Z,6.65
2023-02-19T13:17:10.764Z,6.59
2023-02-19T13:18:10.778Z,6.52